»·PEaware :: UAL280 KBUR-KPSP

UAL280 :: KBUR-KPSP

FLIGHT INFORMATION

Flight Status: Arrived
Operator:
United Airlines
More flights by this operator :: More flights under this callsign
Pilot: Ion I. (24133)
Aircraft: BOEING 737-800
(B738)
More flights by this aircraft type
Origin: KBUR Bob Hope-Burbank
United States
Destination: KPSP Palm Springs Intl
United States
More flights between these airports :: More routes between these airports
Route: +ELMOO V186 NIKKL V64 TRM
File this flight plan on PilotEdge
Remarks:
Altitude:
(Current/Filed)
19,000ft
Speed:
(Current/Filed)
460kts
Departed: 23-Aug-20 11:57 AM
Arrived: 23-Aug-20 12:28 PM
Distance/Time
Traveled:
95nm/0:31
Distance/Time
To Go:
Arrived

Flight Plot

Page will automatically refresh every two minutes.

Flight plan parsing failed; only flown route is shown


Map Options




Map Legend


Flown Route
Filed Route
Departure Airport
Arrival Airport
Navaid (VOR, NDB)
Fix

Horizontal Profiles

Position Reports

Time Latitude Longitude Heading Altitude Ground
Speed
23-Aug-20 11:17 34.196508 -118.354956 130 729ft 0kts
23-Aug-20 11:18 34.196508 -118.354956 130 729ft 0kts
23-Aug-20 11:19 34.196508 -118.354956 130 729ft 0kts
23-Aug-20 11:20 34.196508 -118.354956 130 729ft 0kts
23-Aug-20 11:21 34.196508 -118.354956 130 729ft 0kts
23-Aug-20 11:22 34.196508 -118.354956 130 729ft 0kts
23-Aug-20 11:23 34.196508 -118.354956 130 729ft 0kts
23-Aug-20 11:24 34.196508 -118.354956 130 729ft 0kts
23-Aug-20 11:25 34.196508 -118.354956 130 729ft 0kts
23-Aug-20 11:26 34.196508 -118.354956 130 729ft 0kts
23-Aug-20 11:27 34.196508 -118.354956 130 729ft 0kts
23-Aug-20 11:28 34.196508 -118.354956 130 729ft 0kts
23-Aug-20 11:29 34.196508 -118.354956 130 729ft 0kts
23-Aug-20 11:30 34.196508 -118.354956 130 729ft 0kts
23-Aug-20 11:31 34.196508 -118.354956 130 729ft 0kts
23-Aug-20 11:32 34.196508 -118.354956 130 729ft 0kts
23-Aug-20 11:33 34.196508 -118.354956 130 729ft 0kts
23-Aug-20 11:34 34.196508 -118.354956 130 729ft 0kts
23-Aug-20 11:35 34.196508 -118.354956 130 729ft 0kts
23-Aug-20 11:36 34.196508 -118.354956 130 729ft 0kts
23-Aug-20 11:37 34.196508 -118.354956 130 729ft 0kts
23-Aug-20 11:38 34.196508 -118.354956 130 729ft 0kts
23-Aug-20 11:39 34.196508 -118.354956 130 729ft 0kts
23-Aug-20 11:40 34.196508 -118.354956 130 729ft 0kts
23-Aug-20 11:41 34.196508 -118.354956 130 729ft 0kts
23-Aug-20 11:43 34.196508 -118.354956 130 729ft 0kts
23-Aug-20 11:44 34.196511 -118.354960 130 729ft 0kts
23-Aug-20 11:45 34.196803 -118.355538 99 729ft 0kts
23-Aug-20 11:46 34.196803 -118.355537 99 729ft 0kts
23-Aug-20 11:47 34.196803 -118.355536 99 729ft 0kts
23-Aug-20 11:48 34.196861 -118.355375 49 729ft 7kts
23-Aug-20 11:49 34.200448 -118.355816 346 729ft 25kts
23-Aug-20 11:50 34.205177 -118.357118 346 729ft 18kts
23-Aug-20 11:51 34.210066 -118.358466 351 729ft 13kts
23-Aug-20 11:52 34.211485 -118.358961 314 729ft 0kts
23-Aug-20 11:53 34.211485 -118.358961 314 729ft 0kts
23-Aug-20 11:54 34.211485 -118.358961 314 729ft 0kts
23-Aug-20 11:55 34.211485 -118.358961 314 729ft 0kts
23-Aug-20 11:56 34.211941 -118.360335 168 729ft 7kts
23-Aug-20 11:57 34.189878 -118.354498 170 1059ft 153kts
23-Aug-20 11:57 34.160333 -118.329857 123 2856ft 179kts
23-Aug-20 11:59 34.129290 -118.249127 112 3928ft 270kts
23-Aug-20 12:00 34.100767 -118.164259 107 4014ft 274kts
23-Aug-20 12:00 34.096475 -118.087227 95 6213ft 283kts
23-Aug-20 12:01 34.071800 -117.995336 113 8864ft 294kts
23-Aug-20 12:02 34.047275 -117.914991 111 8996ft 293kts
23-Aug-20 12:04 34.014094 -117.807375 111 9007ft 293kts
23-Aug-20 12:04 33.989739 -117.731133 113 9002ft 293kts
23-Aug-20 12:05 33.957971 -117.642006 113 8974ft 293kts
23-Aug-20 12:06 33.926266 -117.552715 115 8962ft 293kts
23-Aug-20 12:07 33.866802 -117.486064 146 11472ft 308kts
23-Aug-20 12:08 33.791966 -117.424034 145 12954ft 340kts
23-Aug-20 12:09 33.727598 -117.336194 105 12994ft 370kts
23-Aug-20 12:10 33.719910 -117.236263 97 12999ft 373kts
23-Aug-20 12:11 33.710160 -117.113669 98 12998ft 374kts
23-Aug-20 12:12 33.699808 -116.989515 98 12999ft 373kts
23-Aug-20 12:13 33.689369 -116.865622 98 12982ft 376kts
23-Aug-20 12:14 33.679064 -116.743127 98 12267ft 353kts
23-Aug-20 12:15 33.669302 -116.629524 98 10354ft 335kts
23-Aug-20 12:16 33.660609 -116.528912 98 9990ft 272kts
23-Aug-20 12:17 33.652804 -116.438181 97 8753ft 282kts
23-Aug-20 12:18 33.640937 -116.350764 116 8117ft 248kts
23-Aug-20 12:19 33.613452 -116.278514 91 6592ft 228kts
23-Aug-20 12:20 33.658285 -116.243969 332 4483ft 217kts
23-Aug-20 12:21 33.674940 -116.310704 272 4042ft 212kts
23-Aug-20 12:22 33.685515 -116.370018 298 3952ft 166kts
23-Aug-20 12:23 33.719882 -116.406951 325 3239ft 169kts
23-Aug-20 12:24 33.754487 -116.438304 322 2334ft 167kts
23-Aug-20 12:25 33.790424 -116.472599 322 1362ft 161kts
23-Aug-20 12:26 33.824573 -116.503069 325 487ft 139kts
23-Aug-20 12:27 33.832466 -116.511997 185 485ft 13kts
23-Aug-20 12:28 33.827725 -116.508004 146 485ft 23kts
23-Aug-20 12:29 33.824227 -116.505743 144 485ft 9kts
23-Aug-20 12:30 33.823441 -116.505845 244 485ft 0kts
23-Aug-20 12:31 33.823429 -116.505875 244 485ft 0kts
23-Aug-20 12:32 33.823429 -116.505875 244 485ft 0kts

Navigation Log

Ident Type
Flight plan parsing failed, navigation log unavailable